createdAt,value
2017-11-09T00:00:01.566Z,113.57
2017-11-09T00:02:32.745Z,101.43
2017-11-09T00:05:08.376Z,97.30
2017-11-09T00:07:36.776Z,96.30
2017-11-09T00:10:04.810Z,106.93
2017-11-09T00:12:33.520Z,93.30
2017-11-09T00:15:02.154Z,92.97
2017-11-09T00:17:30.515Z,85.73
2017-11-09T00:19:59.844Z,95.33
2017-11-09T00:22:28.208Z,90.10
2017-11-09T00:24:56.575Z,93.77
2017-11-09T00:27:24.952Z,96.90
2017-11-09T00:29:55.353Z,84.50
2017-11-09T00:32:23.720Z,96.93
2017-11-09T00:34:52.082Z,81.93
2017-11-09T00:37:20.467Z,90.80
2017-11-09T00:39:49.373Z,83.27
2017-11-09T00:42:18.512Z,80.50
2017-11-09T00:44:47.171Z,89.57
2017-11-09T00:47:16.586Z,98.93
2017-11-09T00:49:44.948Z,81.23
2017-11-09T00:52:13.992Z,90.67
2017-11-09T00:54:42.355Z,88.60
2017-11-09T00:57:10.734Z,93.40
2017-11-09T00:59:38.755Z,90.30
2017-11-09T01:02:07.154Z,103.03
2017-11-09T01:04:35.508Z,92.77
2017-11-09T01:07:04.674Z,92.70
2017-11-09T01:09:33.044Z,95.27
2017-11-09T01:12:01.074Z,101.90
2017-11-09T01:14:30.388Z,91.13
2017-11-09T01:16:58.764Z,97.87
2017-11-09T01:19:27.825Z,104.63
2017-11-09T01:21:57.371Z,103.60
2017-11-09T01:24:26.670Z,93.43
2017-11-09T01:26:55.042Z,93.13
2017-11-09T01:29:24.004Z,98.47
2017-11-09T01:31:52.376Z,96.10
2017-11-09T01:34:20.748Z,98.20
2017-11-09T01:36:49.117Z,100.97
2017-11-09T01:39:17.753Z,100.17
2017-11-09T01:41:45.796Z,96.63
2017-11-09T01:44:14.165Z,95.10
2017-11-09T01:46:42.727Z,99.23
2017-11-09T01:49:12.067Z,90.47
2017-11-09T01:51:41.753Z,93.87
2017-11-09T01:54:12.060Z,95.57
2017-11-09T01:56:42.586Z,92.00
2017-11-09T01:59:11.772Z,108.60
2017-11-09T02:01:39.805Z,94.87
2017-11-09T02:04:09.601Z,91.57
2017-11-09T02:06:37.970Z,107.57
2017-11-09T02:09:07.743Z,101.83
2017-11-09T02:11:36.733Z,96.90
2017-11-09T02:14:05.410Z,96.17
2017-11-09T02:16:33.788Z,93.50
2017-11-09T02:19:02.150Z,103.73
2017-11-09T02:21:30.836Z,94.10
2017-11-09T02:23:59.832Z,90.77
2017-11-09T02:26:29.009Z,102.93
2017-11-09T02:28:57.030Z,101.97
2017-11-09T02:31:25.274Z,94.40
2017-11-09T02:33:52.948Z,98.27
2017-11-09T02:36:21.665Z,97.07
2017-11-09T02:38:50.831Z,103.17
2017-11-09T02:41:19.312Z,104.73
2017-11-09T02:43:48.693Z,95.60
2017-11-09T02:46:16.708Z,94.20
2017-11-09T02:48:46.589Z,97.50
2017-11-09T02:51:14.964Z,97.00
2017-11-09T02:53:43.362Z,104.67
2017-11-09T02:56:11.074Z,94.63
2017-11-09T02:58:38.777Z,94.57
2017-11-09T03:01:07.210Z,94.23
2017-11-09T03:16:30.648Z,80.97
2017-11-09T03:19:00.747Z,94.53
2017-11-09T03:21:29.240Z,83.47
2017-11-09T03:23:58.355Z,90.10
2017-11-09T03:26:27.505Z,89.43
2017-11-09T03:28:56.884Z,88.13
2017-11-09T03:31:25.501Z,91.33
2017-11-09T03:33:53.874Z,88.23
2017-11-09T03:36:22.244Z,91.03
2017-11-09T03:38:52.596Z,98.73
2017-11-09T03:41:24.364Z,102.57
2017-11-09T03:43:53.177Z,111.23
2017-11-09T03:46:21.059Z,107.57
2017-11-09T03:48:50.366Z,91.40
2017-11-09T03:51:19.026Z,89.93
2017-11-09T03:53:47.665Z,106.57
2017-11-09T03:56:17.055Z,88.07
2017-11-09T03:58:45.438Z,101.10
2017-11-09T04:01:14.780Z,95.50
2017-11-09T04:03:44.990Z,101.10
2017-11-09T04:06:14.351Z,93.33
2017-11-09T04:08:42.969Z,96.97
2017-11-09T04:11:11.372Z,86.30
2017-11-09T04:13:40.369Z,90.17
2017-11-09T04:16:08.770Z,109.63
2017-11-09T04:18:37.155Z,101.20
2017-11-09T04:21:05.534Z,101.57
2017-11-09T04:23:33.911Z,113.13
2017-11-09T04:26:02.288Z,99.63
2017-11-09T04:28:30.671Z,89.53
2017-11-09T04:30:59.040Z,96.00
2017-11-09T04:33:30.897Z,93.97
2017-11-09T04:36:00.381Z,103.80
2017-11-09T04:38:30.071Z,99.47
2017-11-09T04:40:58.436Z,101.67
2017-11-09T04:43:27.610Z,94.90
2017-11-09T04:45:56.735Z,90.47
2017-11-09T04:48:25.199Z,85.77
2017-11-09T04:50:53.587Z,90.67
2017-11-09T04:53:21.994Z,87.07
2017-11-09T04:55:50.370Z,96.97
2017-11-09T04:58:18.917Z,87.37
2017-11-09T05:00:47.521Z,99.53
2017-11-09T05:03:17.660Z,92.90
2017-11-09T05:05:46.887Z,93.73
2017-11-09T05:08:15.259Z,92.83
2017-11-09T05:10:43.708Z,96.23
2017-11-09T05:13:12.487Z,105.07
2017-11-09T05:15:41.153Z,94.20
2017-11-09T05:18:09.600Z,91.80
2017-11-09T05:20:37.980Z,94.97
2017-11-09T05:23:07.926Z,102.77
2017-11-09T05:25:36.297Z,103.13
2017-11-09T05:28:04.673Z,98.00
2017-11-09T05:30:33.864Z,97.93
2017-11-09T05:33:02.593Z,103.33
2017-11-09T05:35:30.961Z,102.37
2017-11-09T05:37:59.342Z,103.60
2017-11-09T05:40:28.598Z,95.83
2017-11-09T05:42:57.282Z,96.73
2017-11-09T05:45:25.733Z,101.20
2017-11-09T05:47:54.142Z,104.10
2017-11-09T05:50:22.749Z,96.80
2017-11-09T05:52:51.141Z,99.90
2017-11-09T05:55:19.512Z,101.40
2017-11-09T05:57:47.887Z,104.77
2017-11-09T06:00:15.586Z,117.13
2017-11-09T06:02:44.217Z,110.70
2017-11-09T06:05:12.679Z,113.63
2017-11-09T06:07:41.057Z,100.00
2017-11-09T06:10:09.161Z,103.30
2017-11-09T06:12:37.549Z,111.63
2017-11-09T06:15:05.954Z,109.20
2017-11-09T06:17:34.336Z,110.27
2017-11-09T06:20:02.723Z,108.83
2017-11-09T06:22:31.306Z,102.20
2017-11-09T06:24:59.926Z,110.83
2017-11-09T06:27:28.304Z,110.57
2017-11-09T06:29:56.679Z,109.13
2017-11-09T06:32:25.061Z,118.43
2017-11-09T06:34:54.187Z,123.63
2017-11-09T06:37:22.677Z,110.43
2017-11-09T06:39:51.064Z,113.83
2017-11-09T06:42:19.449Z,107.07
2017-11-09T06:44:47.841Z,114.27
2017-11-09T06:47:16.219Z,112.87
2017-11-09T06:49:44.585Z,105.27
2017-11-09T06:52:12.959Z,113.90
2017-11-09T06:54:41.335Z,105.97
2017-11-09T06:57:09.721Z,109.20
2017-11-09T06:59:38.171Z,115.10
2017-11-09T07:02:07.750Z,109.30
2017-11-09T07:04:36.881Z,111.43
2017-11-09T07:07:05.029Z,132.93
2017-11-09T07:09:33.395Z,118.47
2017-11-09T07:12:01.770Z,111.90
2017-11-09T07:14:30.160Z,111.90
2017-11-09T07:16:58.755Z,124.97
2017-11-09T07:19:28.663Z,108.40
2017-11-09T07:21:57.236Z,104.63
2017-11-09T07:24:25.611Z,102.00
2017-11-09T07:26:55.795Z,119.63
2017-11-09T07:29:25.052Z,102.70
2017-11-09T07:31:53.427Z,114.90
2017-11-09T07:34:21.826Z,112.40
2017-11-09T07:36:50.258Z,114.73
2017-11-09T07:39:18.640Z,115.03
2017-11-09T07:41:47.008Z,114.40
2017-11-09T07:44:15.452Z,107.03
2017-11-09T07:46:43.834Z,104.80
2017-11-09T07:49:12.219Z,113.03
2017-11-09T07:51:40.817Z,109.07
2017-11-09T07:54:09.176Z,104.37
2017-11-09T07:56:38.927Z,104.50
2017-11-09T07:59:07.308Z,107.43
2017-11-09T08:01:35.709Z,100.40
2017-11-09T08:04:04.296Z,95.87
2017-11-09T08:06:33.760Z,92.43
2017-11-09T08:09:02.122Z,99.87
2017-11-09T08:11:31.304Z,98.50
2017-11-09T08:13:59.658Z,86.33
2017-11-09T08:16:27.851Z,99.27
2017-11-09T08:18:56.234Z,84.93
2017-11-09T08:21:24.588Z,95.93
2017-11-09T08:23:52.961Z,93.13
2017-11-09T08:26:23.384Z,93.53
2017-11-09T08:28:53.873Z,89.67
2017-11-09T08:31:26.166Z,93.07
2017-11-09T08:33:55.311Z,86.03
2017-11-09T08:36:23.682Z,80.60
2017-11-09T08:38:52.258Z,87.33
2017-11-09T08:41:20.636Z,89.27
2017-11-09T08:43:49.041Z,91.57
2017-11-09T08:46:17.645Z,81.37
2017-11-09T08:48:46.007Z,86.20
2017-11-09T08:51:16.320Z,81.50
2017-11-09T08:53:44.680Z,80.70
2017-11-09T08:56:13.044Z,79.80
2017-11-09T08:58:41.421Z,74.90
2017-11-09T09:01:09.788Z,71.33
2017-11-09T09:03:38.363Z,78.23
2017-11-09T09:06:06.721Z,69.47
2017-11-09T09:08:35.306Z,74.20
2017-11-09T09:11:03.591Z,73.70
2017-11-09T09:13:31.851Z,69.83
2017-11-09T09:16:01.266Z,73.27
2017-11-09T09:18:29.451Z,68.93
2017-11-09T09:21:03.208Z,79.40
2017-11-09T09:23:31.387Z,75.20
2017-11-09T09:26:02.825Z,82.00
2017-11-09T09:31:38.451Z,77.17
2017-11-09T09:34:14.269Z,77.93
2017-11-09T09:36:55.477Z,80.93
2017-11-09T09:39:28.195Z,79.10
2017-11-09T09:41:57.813Z,79.40
2017-11-09T09:44:25.984Z,81.33
2017-11-09T09:46:54.172Z,73.73
2017-11-09T09:49:22.365Z,80.53
2017-11-09T09:51:50.728Z,75.63
2017-11-09T09:54:20.325Z,84.40
2017-11-09T09:56:49.524Z,83.97
2017-11-09T09:59:19.398Z,88.67
2017-11-09T10:01:47.296Z,84.83
2017-11-09T10:04:15.510Z,84.87
2017-11-09T10:06:44.688Z,82.20
2017-11-09T10:09:13.061Z,93.43
2017-11-09T10:11:41.451Z,91.43
2017-11-09T10:14:10.093Z,86.27
2017-11-09T10:16:39.125Z,96.53
2017-11-09T10:19:09.994Z,109.17
2017-11-09T10:21:39.164Z,103.40
2017-11-09T10:24:08.157Z,101.50
2017-11-09T10:26:38.190Z,97.70
2017-11-09T10:29:06.567Z,93.23
2017-11-09T10:31:34.944Z,103.93
2017-11-09T10:34:03.306Z,88.40
2017-11-09T10:36:31.679Z,89.97
2017-11-09T10:39:00.042Z,90.57
2017-11-09T10:41:28.615Z,90.93
2017-11-09T10:43:56.987Z,97.47
2017-11-09T10:46:25.368Z,93.70
2017-11-09T10:48:53.748Z,97.83
2017-11-09T10:51:22.136Z,98.47
2017-11-09T10:53:50.561Z,93.83
2017-11-09T10:56:18.598Z,101.57
2017-11-09T10:58:47.925Z,93.23
2017-11-09T11:01:16.895Z,92.83
2017-11-09T11:03:47.134Z,85.33
2017-11-09T11:06:15.799Z,83.50
2017-11-09T11:08:44.179Z,92.53
2017-11-09T11:11:12.220Z,89.90
2017-11-09T11:13:40.608Z,84.10
2017-11-09T11:16:09.989Z,85.00
2017-11-09T11:18:38.377Z,90.73
2017-11-09T11:21:07.508Z,102.60
2017-11-09T11:23:36.513Z,92.70
2017-11-09T11:26:07.636Z,97.93
2017-11-09T11:28:36.018Z,83.67
2017-11-09T11:31:04.714Z,94.83
2017-11-09T11:33:33.329Z,99.90
2017-11-09T11:36:02.492Z,90.83
2017-11-09T11:38:31.156Z,84.17
2017-11-09T11:40:59.530Z,77.30
2017-11-09T11:43:27.892Z,78.50
2017-11-09T11:45:56.335Z,92.20
2017-11-09T11:48:24.888Z,82.87
2017-11-09T11:50:53.281Z,75.27
2017-11-09T11:53:22.189Z,69.57
2017-11-09T11:55:50.596Z,72.00
2017-11-09T11:58:21.233Z,71.03
2017-11-09T12:00:49.787Z,79.77
2017-11-09T12:03:18.159Z,78.37
2017-11-09T12:05:48.601Z,75.93
2017-11-09T12:08:16.996Z,74.57
2017-11-09T12:10:45.453Z,75.17
2017-11-09T12:13:14.770Z,70.93
2017-11-09T12:15:43.213Z,71.23
2017-11-09T12:18:12.463Z,68.33
2017-11-09T12:20:41.078Z,67.40
2017-11-09T12:23:10.224Z,70.20
2017-11-09T12:25:38.886Z,65.67
2017-11-09T12:28:07.547Z,65.40
2017-11-09T12:30:37.366Z,68.00
2017-11-09T12:33:06.571Z,68.00
2017-11-09T12:35:34.960Z,64.87
2017-11-09T12:38:03.360Z,71.43
2017-11-09T12:40:31.388Z,72.53
2017-11-09T12:43:01.082Z,67.80
2017-11-09T12:45:29.466Z,69.63
2017-11-09T12:47:58.179Z,69.23
2017-11-09T12:50:26.753Z,69.27
2017-11-09T12:52:55.462Z,71.50
2017-11-09T12:55:23.970Z,66.77
2017-11-09T12:57:52.369Z,64.07
2017-11-09T13:00:20.565Z,62.90
2017-11-09T13:02:48.992Z,64.80
2017-11-09T13:05:18.066Z,66.97
2017-11-09T13:07:47.152Z,71.13
2017-11-09T13:10:15.532Z,72.03
2017-11-09T13:12:43.948Z,69.67
2017-11-09T13:15:12.347Z,68.33
2017-11-09T13:17:40.737Z,71.70
2017-11-09T13:20:09.116Z,72.47
2017-11-09T13:22:37.493Z,70.80
2017-11-09T13:25:05.933Z,67.20
2017-11-09T13:27:35.114Z,66.43
2017-11-09T13:30:03.495Z,70.13
2017-11-09T13:32:32.264Z,72.23
2017-11-09T13:35:01.613Z,71.60
2017-11-09T13:37:30.012Z,65.73
2017-11-09T13:39:58.926Z,65.10
2017-11-09T13:42:27.356Z,70.73
2017-11-09T13:44:55.795Z,71.13
2017-11-09T13:47:24.233Z,71.40
2017-11-09T13:49:52.607Z,74.47
2017-11-09T13:52:21.008Z,70.30
2017-11-09T13:54:49.390Z,65.10
2017-11-09T13:57:19.276Z,67.77
2017-11-09T13:59:47.832Z,69.40
2017-11-09T14:02:16.299Z,80.33
2017-11-09T14:04:44.682Z,68.30
2017-11-09T14:07:13.084Z,72.60
2017-11-09T14:09:41.508Z,77.83
2017-11-09T14:12:09.888Z,81.10
2017-11-09T14:14:38.309Z,71.30
2017-11-09T14:17:06.537Z,76.17
2017-11-09T14:19:35.545Z,76.00
2017-11-09T14:22:04.081Z,76.73
2017-11-09T14:24:32.475Z,73.37
2017-11-09T14:27:03.553Z,76.27
2017-11-09T14:29:31.963Z,67.37
2017-11-09T14:32:00.330Z,75.87
2017-11-09T14:34:28.509Z,82.03
2017-11-09T14:36:58.384Z,82.70
2017-11-09T14:39:26.862Z,78.43
2017-11-09T14:41:55.242Z,73.43
2017-11-09T14:44:23.625Z,78.97
2017-11-09T14:46:51.582Z,75.30
2017-11-09T14:49:20.061Z,65.80
2017-11-09T14:51:48.473Z,74.50
2017-11-09T14:54:16.916Z,70.00
2017-11-09T14:56:45.290Z,76.07
2017-11-09T14:59:13.665Z,78.70
2017-11-09T15:01:42.077Z,74.70
2017-11-09T15:04:10.453Z,85.17
2017-11-09T15:06:38.824Z,80.80
2017-11-09T15:09:07.008Z,73.10
2017-11-09T15:11:36.094Z,77.13
2017-11-09T15:14:04.452Z,74.33
2017-11-09T15:16:32.916Z,76.10
2017-11-09T15:19:02.644Z,84.17
2017-11-09T15:21:31.073Z,77.60
2017-11-09T15:23:59.293Z,72.17
2017-11-09T15:26:27.468Z,80.10
2017-11-09T15:28:55.839Z,77.27
2017-11-09T15:31:24.028Z,90.83
2017-11-09T15:33:52.208Z,77.30
2017-11-09T15:36:21.456Z,88.93
2017-11-09T15:38:50.552Z,77.87
2017-11-09T15:41:18.913Z,75.57
2017-11-09T15:43:47.402Z,82.87
2017-11-09T15:46:15.837Z,91.40
2017-11-09T15:48:44.481Z,88.43
2017-11-09T15:51:12.863Z,92.90
2017-11-09T15:53:41.233Z,88.13
2017-11-09T15:56:09.630Z,88.97
2017-11-09T15:58:37.995Z,93.87
2017-11-09T16:01:06.402Z,88.83
2017-11-09T16:03:34.813Z,88.67
2017-11-09T16:06:03.193Z,83.87
2017-11-09T16:08:32.112Z,87.83
2017-11-09T16:11:01.051Z,86.30
2017-11-09T16:13:30.619Z,89.63
2017-11-09T16:15:59.255Z,89.50
2017-11-09T16:18:28.172Z,96.03
2017-11-09T16:20:56.548Z,93.50
2017-11-09T16:23:25.652Z,89.07
2017-11-09T16:25:54.725Z,78.07
2017-11-09T16:28:24.206Z,84.20
2017-11-09T16:30:52.582Z,87.87
2017-11-09T16:33:21.370Z,95.53
2017-11-09T16:35:49.744Z,86.70
2017-11-09T16:38:18.464Z,94.70
2017-11-09T16:40:47.179Z,76.57
2017-11-09T16:43:15.790Z,86.00
2017-11-09T16:45:44.273Z,81.37
2017-11-09T16:48:12.861Z,91.40
2017-11-09T16:50:41.258Z,89.47
2017-11-09T16:53:09.642Z,81.77
2017-11-09T16:55:44.099Z,91.13
2017-11-09T16:58:13.231Z,81.73
2017-11-09T17:00:41.610Z,79.90
2017-11-09T17:03:10.342Z,77.47
2017-11-09T17:05:39.619Z,73.87
2017-11-09T17:08:08.819Z,80.50
2017-11-09T17:10:37.173Z,87.27
2017-11-09T17:13:06.242Z,79.97
2017-11-09T17:15:35.361Z,83.67
2017-11-09T17:18:03.810Z,85.37
2017-11-09T17:20:34.113Z,78.50
2017-11-09T17:23:04.232Z,68.53
2017-11-09T17:25:34.468Z,72.13
2017-11-09T17:28:03.675Z,69.90
2017-11-09T17:30:32.284Z,79.23
2017-11-09T17:33:03.283Z,74.50
2017-11-09T17:35:31.640Z,75.53
2017-11-09T17:38:00.110Z,70.33
2017-11-09T17:40:28.714Z,67.00
2017-11-09T17:42:58.932Z,68.40
2017-11-09T17:45:27.618Z,75.23
2017-11-09T17:47:56.065Z,64.10
2017-11-09T17:50:24.471Z,66.93
2017-11-09T17:52:52.839Z,72.73
2017-11-09T17:55:21.229Z,74.30
2017-11-09T17:57:49.676Z,68.63
2017-11-09T18:00:18.685Z,75.53
2017-11-09T18:02:46.998Z,70.43
2017-11-09T18:05:15.612Z,68.20
2017-11-09T18:07:44.757Z,73.70
2017-11-09T18:10:13.142Z,77.80
2017-11-09T18:12:42.351Z,82.80
2017-11-09T18:15:11.376Z,74.97
2017-11-09T18:17:39.757Z,75.03
2017-11-09T18:20:09.039Z,76.30
2017-11-09T18:22:37.842Z,69.33
2017-11-09T18:25:06.212Z,76.73
2017-11-09T18:27:34.617Z,78.27
2017-11-09T18:30:03.607Z,69.17
2017-11-09T18:32:31.991Z,82.03
2017-11-09T18:35:00.367Z,73.43
2017-11-09T18:37:28.741Z,84.67
2017-11-09T18:39:57.119Z,83.07
2017-11-09T18:42:25.498Z,83.30
2017-11-09T18:44:53.874Z,84.03
2017-11-09T18:47:22.128Z,80.70
2017-11-09T18:49:51.081Z,83.53
2017-11-09T18:52:19.458Z,80.97
2017-11-09T18:54:47.842Z,75.37
2017-11-09T18:57:16.497Z,71.43
2017-11-09T18:59:45.544Z,77.90
2017-11-09T19:02:13.949Z,80.40
2017-11-09T19:04:45.366Z,69.97
2017-11-09T19:07:13.811Z,74.77
2017-11-09T19:09:43.151Z,83.60
2017-11-09T19:12:11.535Z,84.10
2017-11-09T19:14:39.593Z,72.90
2017-11-09T19:17:07.971Z,73.50
2017-11-09T19:19:36.475Z,68.10
2017-11-09T19:22:04.835Z,79.10
2017-11-09T19:24:33.201Z,75.47
2017-11-09T19:27:01.412Z,73.97
2017-11-09T19:29:29.776Z,81.27
2017-11-09T19:31:58.157Z,70.70
2017-11-09T19:34:26.789Z,68.33
2017-11-09T19:36:54.837Z,72.20
2017-11-09T19:39:24.110Z,77.93
2017-11-09T19:41:52.718Z,69.27
2017-11-09T19:44:21.233Z,70.93
2017-11-09T19:46:50.313Z,66.90
2017-11-09T19:49:18.775Z,72.23
2017-11-09T19:51:47.179Z,74.40
2017-11-09T19:54:16.433Z,72.77
2017-11-09T19:56:45.158Z,71.10
2017-11-09T19:59:13.536Z,74.47
2017-11-09T20:01:41.969Z,68.63
2017-11-09T20:04:10.337Z,72.80
2017-11-09T20:06:39.441Z,67.20
2017-11-09T20:09:07.818Z,75.50
2017-11-09T20:11:36.195Z,70.53
2017-11-09T20:14:04.611Z,67.90
2017-11-09T20:16:32.993Z,71.03
2017-11-09T20:19:01.814Z,68.53
2017-11-09T20:21:30.362Z,70.67
2017-11-09T20:23:58.720Z,63.20
2017-11-09T20:26:27.422Z,68.87
2017-11-09T20:28:56.167Z,68.77
2017-11-09T20:31:25.307Z,70.57
2017-11-09T20:33:53.869Z,67.07
2017-11-09T20:36:22.260Z,69.20
2017-11-09T20:38:51.812Z,66.47
2017-11-09T20:41:21.153Z,77.57
2017-11-09T20:43:49.735Z,76.53
2017-11-09T20:46:19.739Z,74.73
2017-11-09T20:48:48.937Z,73.67
2017-11-09T20:51:17.520Z,78.50
2017-11-09T20:53:45.908Z,69.13
2017-11-09T20:56:14.543Z,72.90
2017-11-09T20:58:43.372Z,74.20
2017-11-09T21:01:12.614Z,70.50
2017-11-09T21:03:41.148Z,76.47
2017-11-09T21:06:10.050Z,68.67
2017-11-09T21:08:38.422Z,65.30
2017-11-09T21:11:06.817Z,65.03
2017-11-09T21:13:35.608Z,67.17
2017-11-09T21:16:04.302Z,62.93
2017-11-09T21:18:32.947Z,63.17
2017-11-09T21:21:01.349Z,66.27
2017-11-09T21:23:30.194Z,62.17
2017-11-09T21:25:58.574Z,64.87
2017-11-09T21:28:28.274Z,63.03
2017-11-09T21:30:56.813Z,63.07
2017-11-09T21:33:25.480Z,62.30
2017-11-09T21:35:54.718Z,59.33
2017-11-09T21:38:23.367Z,68.50
2017-11-09T21:40:51.971Z,55.30
2017-11-09T21:43:20.398Z,65.17
2017-11-09T21:45:49.648Z,62.67
2017-11-09T21:48:18.974Z,61.80
2017-11-09T21:50:47.600Z,57.50
2017-11-09T21:53:16.732Z,61.73
2017-11-09T21:55:46.595Z,61.80
2017-11-09T21:58:18.209Z,61.40
2017-11-09T22:00:46.264Z,60.73
2017-11-09T22:03:16.108Z,58.87
2017-11-09T22:05:44.480Z,51.00
2017-11-09T22:08:12.882Z,56.00
2017-11-09T22:10:41.256Z,52.33
2017-11-09T22:13:10.565Z,51.33
2017-11-09T22:15:39.356Z,52.07
2017-11-09T22:18:08.593Z,55.23
2017-11-09T22:20:37.896Z,50.50
2017-11-09T22:23:06.984Z,54.47
2017-11-09T22:25:35.365Z,53.00
2017-11-09T22:28:04.393Z,53.60
2017-11-09T22:30:32.829Z,56.30
2017-11-09T22:33:01.228Z,52.00
2017-11-09T22:35:29.625Z,48.87
2017-11-09T22:37:58.028Z,55.40
2017-11-09T22:40:27.948Z,53.40
2017-11-09T22:42:56.935Z,48.33
2017-11-09T22:45:26.571Z,48.83
2017-11-09T22:47:55.869Z,52.93
2017-11-09T22:50:24.464Z,53.47
2017-11-09T22:52:53.455Z,56.93
2017-11-09T22:55:23.176Z,50.20
2017-11-09T22:57:54.486Z,55.87
2017-11-09T23:00:22.156Z,59.50
2017-11-09T23:02:51.554Z,56.20
2017-11-09T23:05:20.023Z,49.20
2017-11-09T23:07:48.371Z,52.27
2017-11-09T23:10:17.546Z,57.10
2017-11-09T23:12:45.699Z,53.30
2017-11-09T23:15:14.086Z,51.23
2017-11-09T23:17:42.685Z,51.90
2017-11-09T23:20:11.045Z,54.50
2017-11-09T23:22:39.426Z,56.83
2017-11-09T23:25:07.786Z,72.10
2017-11-09T23:27:36.148Z,68.83
2017-11-09T23:30:03.818Z,73.80
2017-11-09T23:32:32.169Z,72.00
2017-11-09T23:35:00.739Z,77.97
2017-11-09T23:37:29.434Z,61.20
2017-11-09T23:39:57.781Z,76.90
2017-11-09T23:42:26.935Z,81.43
2017-11-09T23:44:55.349Z,81.83
